CheckWX is a tool to help pilots better visualize weather data.  It is not intended as a substitute for an official pre-flight weather briefing.

17:41:44 UTC

CYYD TAF
Smithers Airport
Smithers, Canada
TAF CYYD 181338Z 1814/1902 VRB03KT P6SM FEW060 SCT080 BKN220 FM181800 16008KT P6SM SCT060 BKN150 TEMPO 1818/1902 P6SM -SHRA BKN060 BECMG 1820/1822 32008KT RMK FCST BASED ON AUTO OBS. NXT FCST BY 181900Z

Jun-18@
14:00 UTC

Jun-18 @ 14:00 UTC

Jun-18@
18:00 UTC

Jun-18 @ 18:00 UTC

TAF CYYD 181338Z 1814/1902 VRB03KT P6SM FEW060 SCT080 BKN220
Wind
  • Variable at 3 KTS
Cloud Levels
  • Few at 6,000' AGL
  • Scattered at 8,000' AGL
  • Broken at 22,000' AGL

Jun-18@
18:00 UTC

Jun-18 @ 18:00 UTC

Jun-18@
20:00 UTC

Jun-18 @ 20:00 UTC

FM181800 16008KT P6SM SCT060 BKN150

From

From Standard forecast or significant change

Wind
  • 160° at 8 KTS
Cloud Levels
  • Scattered at 6,000' AGL
  • Broken at 15,000' AGL

Jun-18@
18:00 UTC

Jun-18 @ 18:00 UTC

Jun-19@
02:00 UTC

Jun-19 @ 02:00 UTC

TEMPO 1818/1902 P6SM -SHRA BKN060

Temporary

Temporary Changes expected for less than half the time period

Conditions
Light Rain
Cloud Levels
  • Broken at 6,000' AGL

Jun-18@
20:00 UTC

Jun-18 @ 20:00 UTC

Jun-19@
02:00 UTC

Jun-19 @ 02:00 UTC

BECMG 1820/1822 32008KT RMK FCST BASED ON AUTO OBS. NXT FCST BY 181900Z

Becoming

Becoming Conditions expected by Tue, Jun 18, 2019 @ 22:00 UTC

Wind
  • 320° at 8 KTS
Cloud Levels
  • Scattered at 6,000' AGL
  • Broken at 15,000' AGL